createdAt,value
2018-12-21T08:00:45.617Z,9.22
2018-12-21T08:01:45.537Z,9.36
2018-12-21T08:02:45.589Z,9.19
2018-12-21T08:03:45.643Z,9.22
2018-12-21T08:04:45.698Z,9.22
2018-12-21T08:05:45.761Z,9.21
2018-12-21T08:06:45.817Z,9.21
2018-12-21T08:07:45.870Z,9.28
2018-12-21T08:08:45.925Z,9.36
2018-12-21T08:09:45.985Z,9.36
2018-12-21T08:10:46.049Z,9.25
2018-12-21T08:11:46.105Z,9.25
2018-12-21T08:12:46.158Z,9.22
2018-12-21T08:13:46.218Z,9.37
2018-12-21T08:14:46.277Z,9.37
2018-12-21T08:15:46.345Z,9.22
2018-12-21T08:16:46.405Z,9.29
2018-12-21T08:17:46.458Z,9.32
2018-12-21T08:18:46.518Z,9.37
2018-12-21T08:19:46.578Z,9.29
2018-12-21T08:20:46.775Z,9.40
2018-12-21T08:21:46.705Z,9.39
2018-12-21T08:22:46.757Z,9.32
2018-12-21T08:23:46.818Z,9.40
2018-12-21T08:24:47.332Z,9.39
2018-12-21T08:25:46.950Z,9.36
2018-12-21T08:26:47.016Z,9.37
2018-12-21T08:27:47.062Z,9.39
2018-12-21T08:28:47.122Z,9.34
2018-12-21T08:29:47.182Z,9.47
2018-12-21T08:30:47.242Z,9.43
2018-12-21T08:31:48.099Z,9.40
2018-12-21T08:32:47.366Z,9.37
2018-12-21T08:33:47.426Z,9.39
2018-12-21T08:34:47.486Z,9.43
2018-12-21T08:35:47.562Z,9.29
2018-12-21T08:36:47.618Z,9.31
2018-12-21T08:37:47.679Z,9.41
2018-12-21T08:38:47.730Z,9.40
2018-12-21T08:39:47.795Z,9.34
2018-12-21T08:40:47.854Z,9.37
2018-12-21T08:41:47.923Z,9.39
2018-12-21T08:42:47.984Z,9.32
2018-12-21T08:43:48.039Z,9.37
2018-12-21T08:44:48.099Z,9.36
2018-12-21T08:45:48.159Z,9.41
2018-12-21T08:46:48.315Z,9.46
2018-12-21T08:47:48.283Z,9.43
2018-12-21T08:48:48.343Z,9.41
2018-12-21T08:49:48.403Z,9.40
2018-12-21T08:50:48.471Z,9.36
2018-12-21T08:51:48.535Z,9.40
2018-12-21T08:52:48.595Z,9.39
2018-12-21T08:53:52.461Z,9.41
2018-12-21T08:54:48.711Z,9.39
2018-12-21T08:55:48.771Z,9.43
2018-12-21T08:56:48.840Z,9.37
2018-12-21T08:57:48.900Z,9.43
2018-12-21T08:58:48.955Z,9.46
2018-12-21T08:59:49.015Z,9.36
2018-12-21T09:00:49.075Z,9.46
2018-12-21T09:01:49.376Z,9.50
2018-12-21T09:02:49.200Z,9.51
2018-12-21T09:03:49.264Z,9.50
2018-12-21T09:04:49.325Z,9.51
2018-12-21T09:05:49.384Z,9.47
2018-12-21T09:06:49.452Z,9.55
2018-12-21T09:07:49.514Z,9.51
2018-12-21T09:08:49.569Z,9.51
2018-12-21T09:09:49.627Z,9.55
2018-12-21T09:10:49.688Z,9.61
2018-12-21T09:11:49.756Z,9.59
2018-12-21T09:12:49.820Z,9.48
2018-12-21T09:13:49.872Z,9.51
2018-12-21T09:14:50.039Z,9.46
2018-12-21T09:15:49.996Z,9.47
2018-12-21T09:16:50.064Z,9.62
2018-12-21T09:17:50.125Z,9.56
2018-12-21T09:18:50.180Z,9.50
2018-12-21T09:19:50.244Z,9.59
2018-12-21T09:20:50.301Z,9.51
2018-12-21T09:21:50.373Z,9.51
2018-12-21T09:22:50.432Z,9.54
2018-12-21T09:23:50.485Z,9.51
2018-12-21T09:24:50.544Z,9.54
2018-12-21T09:25:50.609Z,9.55
2018-12-21T09:26:50.677Z,9.54
2018-12-21T09:27:50.737Z,9.59
2018-12-21T09:28:50.793Z,9.59
2018-12-21T09:29:50.853Z,9.61
2018-12-21T09:30:50.913Z,9.65
2018-12-21T09:31:50.985Z,9.69
2018-12-21T09:32:51.046Z,9.68
2018-12-21T09:33:51.096Z,9.64
2018-12-21T09:34:51.157Z,9.68
2018-12-21T09:35:51.221Z,9.72
2018-12-21T09:36:51.281Z,9.74
2018-12-21T09:37:51.449Z,9.74
2018-12-21T09:38:51.400Z,9.76
2018-12-21T09:39:51.465Z,9.73
2018-12-21T09:40:51.537Z,9.73
2018-12-21T09:41:51.589Z,9.72
2018-12-21T09:42:53.469Z,9.77
2018-12-21T09:43:51.717Z,9.80
2018-12-21T09:44:52.673Z,9.77
2018-12-21T09:45:51.834Z,9.74
2018-12-21T09:46:51.893Z,9.87
2018-12-21T09:47:52.068Z,9.83
2018-12-21T09:48:52.025Z,9.79
2018-12-21T09:49:52.078Z,9.79
2018-12-21T09:50:52.138Z,9.84
2018-12-21T09:51:52.206Z,9.80
2018-12-21T09:52:52.285Z,9.87
2018-12-21T09:53:52.327Z,9.82
2018-12-21T09:54:52.386Z,9.84
2018-12-21T09:55:52.446Z,9.87
2018-12-21T09:56:52.506Z,9.89
2018-12-21T09:57:52.578Z,9.86
2018-12-21T09:58:52.639Z,9.84
2018-12-21T09:59:52.694Z,9.95
2018-12-21T10:00:52.758Z,9.89
2018-12-21T10:01:52.814Z,9.87
2018-12-21T10:02:52.881Z,9.94
2018-12-21T10:03:52.946Z,9.94
2018-12-21T10:04:52.998Z,10.02
2018-12-21T10:05:53.058Z,9.89
2018-12-21T10:06:53.123Z,10.01
2018-12-21T10:07:53.290Z,10.04
2018-12-21T10:08:53.242Z,10.04
2018-12-21T10:09:53.306Z,10.04
2018-12-21T10:10:53.366Z,10.04
2018-12-21T10:11:53.426Z,10.01
2018-12-21T10:12:53.586Z,10.02
2018-12-21T10:13:53.563Z,10.02
2018-12-21T10:14:53.614Z,10.04
2018-12-21T10:15:53.778Z,10.12
2018-12-21T10:16:53.806Z,10.07
2018-12-21T10:17:53.803Z,10.15
2018-12-21T10:18:53.867Z,10.13
2018-12-21T10:19:53.919Z,10.15
2018-12-21T10:20:53.983Z,10.13
2018-12-21T10:21:54.042Z,10.22
2018-12-21T10:22:54.239Z,10.09
2018-12-21T10:23:54.167Z,10.15
2018-12-21T10:24:54.336Z,10.10
2018-12-21T10:25:54.295Z,10.10
2018-12-21T10:26:54.353Z,10.17
2018-12-21T10:27:54.423Z,10.17
2018-12-21T10:28:54.483Z,10.20
2018-12-21T10:29:54.535Z,10.17
2018-12-21T10:30:54.595Z,10.20
2018-12-21T10:31:54.663Z,10.20
2018-12-21T10:32:54.727Z,10.22
2018-12-21T10:33:54.792Z,10.23
2018-12-21T10:34:54.845Z,10.31
2018-12-21T10:35:54.903Z,10.22
2018-12-21T10:36:54.967Z,10.35
2018-12-21T10:37:55.035Z,10.35
2018-12-21T10:38:55.096Z,10.30
2018-12-21T10:39:55.152Z,10.42
2018-12-21T10:40:55.225Z,10.38
2018-12-21T10:41:55.275Z,10.41
2018-12-21T10:42:55.427Z,10.41
2018-12-21T10:43:55.401Z,10.42
2018-12-21T10:44:55.459Z,10.41
2018-12-21T10:45:55.524Z,10.56
2018-12-21T10:46:55.584Z,10.53
2018-12-21T10:47:55.651Z,10.67
2018-12-21T10:48:55.716Z,10.63
2018-12-21T10:49:55.768Z,10.76
2018-12-21T10:50:55.828Z,11.29
2018-12-21T10:51:55.891Z,11.43
2018-12-21T10:52:55.959Z,11.62
2018-12-21T10:53:56.024Z,11.87
2018-12-21T10:54:56.077Z,12.06
2018-12-21T10:55:56.140Z,12.13
2018-12-21T10:56:56.200Z,12.32
2018-12-21T10:57:56.264Z,12.46
2018-12-21T10:58:56.416Z,12.64
2018-12-21T10:59:56.388Z,12.75
2018-12-21T11:00:56.449Z,12.72
2018-12-21T11:01:56.512Z,12.75
2018-12-21T11:02:56.573Z,12.75
2018-12-21T11:03:56.645Z,12.87
2018-12-21T11:04:56.704Z,12.82
2018-12-21T11:05:56.767Z,12.97
2018-12-21T11:06:56.821Z,12.95
2018-12-21T11:07:56.884Z,13.04
2018-12-21T11:08:56.959Z,13.12
2018-12-21T11:09:57.298Z,13.13
2018-12-21T11:10:57.074Z,13.20
2018-12-21T11:11:57.137Z,13.18
2018-12-21T11:12:57.197Z,13.15
2018-12-21T11:13:57.265Z,13.19
2018-12-21T11:14:57.333Z,13.30
2018-12-21T11:15:57.389Z,13.31
2018-12-21T11:16:57.452Z,13.28
2018-12-21T11:17:57.509Z,13.30
2018-12-21T11:18:57.577Z,13.37
2018-12-21T11:19:57.641Z,13.39
2018-12-21T11:20:57.698Z,13.37
2018-12-21T11:21:57.757Z,13.46
2018-12-21T11:22:58.002Z,13.50
2018-12-21T11:23:57.891Z,13.50
2018-12-21T11:24:57.957Z,13.44
2018-12-21T11:25:58.013Z,13.50
2018-12-21T11:26:58.070Z,13.49
2018-12-21T11:27:58.133Z,13.62
2018-12-21T11:28:58.218Z,13.63
2018-12-21T11:29:58.258Z,13.63
2018-12-21T11:30:58.322Z,13.60
2018-12-21T11:31:58.386Z,13.70
2018-12-21T11:32:58.447Z,13.62
2018-12-21T11:33:58.520Z,13.71
2018-12-21T11:34:58.583Z,13.75
2018-12-21T11:35:58.637Z,13.72
2018-12-21T11:36:58.699Z,13.79
2018-12-21T11:37:58.762Z,13.79
2018-12-21T11:38:58.831Z,13.89
2018-12-21T11:39:58.894Z,13.86
2018-12-21T11:40:58.951Z,13.81
2018-12-21T11:41:59.015Z,13.85
2018-12-21T11:42:59.079Z,13.75
2018-12-21T11:43:59.187Z,13.86
2018-12-21T11:44:59.203Z,13.89
2018-12-21T11:45:59.264Z,14.05
2018-12-21T11:46:59.328Z,13.97
2018-12-21T11:47:59.391Z,13.93
2018-12-21T11:48:59.459Z,14.00
2018-12-21T11:49:59.523Z,13.96
2018-12-21T11:50:59.579Z,13.97
2018-12-21T11:51:59.643Z,14.00
2018-12-21T11:52:59.703Z,13.95
2018-12-21T11:53:59.775Z,14.03
2018-12-21T11:54:59.839Z,13.97
2018-12-21T11:55:59.896Z,14.00
2018-12-21T11:56:59.955Z,14.00
2018-12-21T11:58:00.020Z,14.07
2018-12-21T11:59:00.200Z,14.03
2018-12-21T12:00:00.191Z,14.08
2018-12-21T12:01:00.208Z,14.03
2018-12-21T12:02:00.276Z,14.15
2018-12-21T12:03:00.336Z,14.26
2018-12-21T12:04:00.404Z,14.12
2018-12-21T12:05:00.468Z,14.04
2018-12-21T12:06:00.524Z,14.00
2018-12-21T12:07:00.585Z,14.03
2018-12-21T12:08:00.648Z,14.05
2018-12-21T12:09:06.221Z,14.10
2018-12-21T12:10:00.784Z,14.08
2018-12-21T12:11:00.840Z,14.11
2018-12-21T12:12:00.904Z,14.00
2018-12-21T12:13:00.964Z,14.17
2018-12-21T12:14:01.036Z,14.28
2018-12-21T12:15:01.096Z,14.22
2018-12-21T12:16:01.153Z,14.26
2018-12-21T12:17:01.217Z,14.22
2018-12-21T12:18:01.280Z,14.25
2018-12-21T12:19:01.354Z,14.23
2018-12-21T12:20:01.413Z,14.26
2018-12-21T12:21:01.468Z,14.25
2018-12-21T12:22:01.532Z,14.20
2018-12-21T12:23:01.597Z,14.30
2018-12-21T12:24:01.665Z,14.36
2018-12-21T12:25:01.728Z,14.35
2018-12-21T12:26:01.786Z,14.18
2018-12-21T12:27:01.849Z,14.32
2018-12-21T12:28:01.913Z,14.23
2018-12-21T12:29:01.987Z,14.32
2018-12-21T12:30:02.045Z,14.28
2018-12-21T12:31:02.101Z,14.36
2018-12-21T12:32:02.174Z,14.50
2018-12-21T12:33:02.225Z,14.48
2018-12-21T12:34:02.289Z,14.59
2018-12-21T12:35:02.437Z,14.62
2018-12-21T12:36:02.421Z,14.58
2018-12-21T12:37:02.481Z,14.53
2018-12-21T12:38:02.548Z,14.63
2018-12-21T12:39:02.605Z,14.60
2018-12-21T12:40:02.677Z,14.60
2018-12-21T12:41:06.781Z,14.55
2018-12-21T12:42:03.831Z,14.66
2018-12-21T12:43:02.858Z,14.69
2018-12-21T12:44:02.926Z,14.69
2018-12-21T12:45:02.999Z,14.72
2018-12-21T12:46:03.058Z,14.77
2018-12-21T12:47:03.110Z,14.85
2018-12-21T12:48:03.174Z,14.78
2018-12-21T12:49:03.238Z,14.81
2018-12-21T12:50:03.346Z,14.81
2018-12-21T12:51:03.366Z,14.81
2018-12-21T12:52:03.434Z,14.91
2018-12-21T12:53:03.498Z,14.85
2018-12-21T12:54:03.556Z,14.88
2018-12-21T12:55:03.626Z,14.91
2018-12-21T12:56:05.210Z,14.94
2018-12-21T12:57:03.746Z,14.86
2018-12-21T12:58:03.811Z,14.96
2018-12-21T12:59:03.873Z,14.97
2018-12-21T13:00:03.942Z,15.03
2018-12-21T13:01:04.010Z,14.97
2018-12-21T13:02:04.062Z,14.99
2018-12-21T13:03:04.126Z,15.03
2018-12-21T13:04:04.190Z,15.09
2018-12-21T13:05:04.255Z,15.09
2018-12-21T13:06:04.407Z,15.06
2018-12-21T13:07:04.379Z,15.00
2018-12-21T13:08:04.443Z,15.06
2018-12-21T13:09:04.507Z,15.00
2018-12-21T13:10:04.572Z,15.02
2018-12-21T13:11:04.643Z,15.04
2018-12-21T13:12:04.710Z,15.11
2018-12-21T13:13:04.766Z,15.09
2018-12-21T13:14:04.827Z,15.09
2018-12-21T13:15:04.892Z,15.10
2018-12-21T13:16:04.959Z,15.07
2018-12-21T13:17:05.028Z,15.07
2018-12-21T13:18:05.080Z,15.00
2018-12-21T13:19:05.143Z,14.99
2018-12-21T13:20:05.212Z,15.04
2018-12-21T13:21:05.316Z,15.06
2018-12-21T13:22:05.336Z,15.03
2018-12-21T13:23:05.400Z,15.00
2018-12-21T13:24:05.462Z,14.99
2018-12-21T13:25:11.317Z,15.06
2018-12-21T13:26:05.596Z,14.99
2018-12-21T13:27:05.660Z,15.00
2018-12-21T13:28:05.716Z,14.96
2018-12-21T13:29:05.786Z,15.06
2018-12-21T13:30:05.840Z,15.02
2018-12-21T13:31:05.915Z,14.99
2018-12-21T13:32:05.976Z,14.97
2018-12-21T13:33:06.037Z,14.91
2018-12-21T13:34:06.098Z,14.85
2018-12-21T13:35:06.160Z,14.94
2018-12-21T13:36:06.317Z,14.89
2018-12-21T13:37:06.289Z,14.89
2018-12-21T13:38:06.348Z,14.85
2018-12-21T13:39:06.423Z,14.86
2018-12-21T13:40:06.476Z,14.94
2018-12-21T13:41:06.549Z,14.92
2018-12-21T13:42:06.617Z,14.94
2018-12-21T13:43:06.665Z,14.86
2018-12-21T13:44:06.729Z,14.94
2018-12-21T13:45:06.797Z,14.84
2018-12-21T13:46:06.894Z,14.79
2018-12-21T13:47:06.925Z,14.81
2018-12-21T13:48:06.985Z,14.82
2018-12-21T13:49:07.049Z,14.78
2018-12-21T13:50:07.111Z,14.77
2018-12-21T13:51:07.413Z,14.84
2018-12-21T13:52:07.238Z,14.86
2018-12-21T13:53:07.302Z,14.88
2018-12-21T13:54:07.366Z,14.78
2018-12-21T13:55:07.426Z,14.78
2018-12-21T13:56:07.498Z,14.82
2018-12-21T13:57:07.562Z,14.70
2018-12-21T13:58:07.622Z,14.69
2018-12-21T13:59:07.687Z,14.77
2018-12-21T14:00:07.743Z,14.69
2018-12-21T14:01:07.815Z,14.69
2018-12-21T14:02:07.879Z,14.70
2018-12-21T14:03:07.938Z,14.77
2018-12-21T14:04:08.002Z,14.79
2018-12-21T14:05:08.062Z,14.81
2018-12-21T14:06:08.222Z,14.85
2018-12-21T14:07:08.186Z,14.79
2018-12-21T14:08:08.258Z,14.73
2018-12-21T14:09:08.314Z,14.77
2018-12-21T14:10:08.380Z,14.70
2018-12-21T14:11:08.450Z,14.72
2018-12-21T15:58:02.648Z,13.63
2018-12-21T15:59:02.472Z,13.63
2018-12-21T16:00:02.536Z,13.65
2018-12-21T16:01:02.594Z,13.68
2018-12-21T16:02:02.644Z,13.60
2018-12-21T16:03:02.712Z,13.62
2018-12-21T16:04:02.773Z,13.67
2018-12-21T16:05:02.821Z,13.62
2018-12-21T16:06:02.885Z,13.62
2018-12-21T16:07:02.944Z,13.65
2018-12-21T16:08:03.012Z,13.56
2018-12-21T16:09:03.073Z,13.62
2018-12-21T16:10:03.129Z,13.52
2018-12-21T16:11:03.195Z,13.56
2018-12-21T16:12:03.249Z,13.57
2018-12-21T16:13:03.321Z,13.57
2018-12-21T16:14:03.381Z,13.62
2018-12-21T16:15:03.437Z,13.53
2018-12-21T16:16:03.497Z,13.50
2018-12-21T16:17:03.561Z,13.49
2018-12-21T16:18:03.629Z,13.56
2018-12-21T16:19:03.701Z,13.62
2018-12-21T16:20:03.749Z,13.54
2018-12-21T16:21:03.810Z,13.57
2018-12-21T16:22:03.874Z,13.53
2018-12-21T16:23:03.942Z,13.49
2018-12-21T16:24:06.919Z,13.59
2018-12-21T16:25:04.057Z,13.46
2018-12-21T16:26:04.122Z,13.44
2018-12-21T16:27:04.186Z,13.46
2018-12-21T16:28:04.246Z,13.49
2018-12-21T16:29:04.418Z,13.49
2018-12-21T16:30:04.370Z,13.53
2018-12-21T16:31:04.434Z,13.41
2018-12-21T16:32:04.499Z,13.46
2018-12-21T16:33:04.558Z,13.31
2018-12-21T16:34:04.859Z,13.30
2018-12-21T16:35:04.694Z,13.30
2018-12-21T16:36:04.750Z,13.41
2018-12-21T16:37:04.830Z,13.49
2018-12-21T16:38:04.874Z,13.50
2018-12-21T16:39:04.942Z,13.42
2018-12-21T16:40:05.006Z,13.30
2018-12-21T16:41:05.058Z,13.31
2018-12-21T16:42:05.122Z,13.37
2018-12-21T16:43:05.186Z,13.33
2018-12-21T16:44:05.367Z,13.31
2018-12-21T16:45:05.310Z,13.28
2018-12-21T16:46:05.376Z,13.30
2018-12-21T16:47:05.442Z,13.37
2018-12-21T16:48:05.501Z,13.30
2018-12-21T16:49:05.575Z,13.31
2018-12-21T16:50:05.631Z,13.35
2018-12-21T16:51:05.687Z,13.30
2018-12-21T16:52:05.747Z,13.33
2018-12-21T16:53:05.812Z,13.37
2018-12-21T16:54:05.884Z,13.37
2018-12-21T16:55:05.946Z,13.30
2018-12-21T16:56:12.355Z,13.18
2018-12-21T16:57:06.063Z,13.19
2018-12-21T16:58:06.127Z,13.15
2018-12-21T16:59:06.279Z,13.25
2018-12-21T17:00:06.251Z,13.23
2018-12-21T17:01:06.795Z,13.23
2018-12-21T17:02:06.375Z,13.23
2018-12-21T17:03:06.439Z,13.22
2018-12-21T17:04:06.511Z,13.27
2018-12-21T17:05:06.572Z,13.23
2018-12-21T17:06:06.627Z,13.28
2018-12-21T17:07:06.692Z,13.35
2018-12-21T17:08:06.752Z,13.27
2018-12-21T17:09:07.013Z,13.22
2018-12-21T17:10:06.980Z,13.22
2018-12-21T17:11:06.940Z,13.23
2018-12-21T17:12:07.004Z,13.22
2018-12-21T17:13:07.071Z,13.18
2018-12-21T17:14:07.368Z,13.19
2018-12-21T17:15:07.196Z,13.13
2018-12-21T17:16:07.256Z,13.16
2018-12-21T17:17:07.316Z,13.12
2018-12-21T17:18:07.381Z,13.05
2018-12-21T17:19:07.789Z,13.04
2018-12-21T17:20:07.602Z,13.03
2018-12-21T17:21:07.568Z,13.08
2018-12-21T17:22:07.632Z,13.16
2018-12-21T17:23:07.804Z,13.11
2018-12-21T17:24:07.776Z,13.18
2018-12-21T17:25:07.825Z,13.16
2018-12-21T17:26:07.897Z,13.16
2018-12-21T17:27:07.944Z,13.16
2018-12-21T17:28:08.009Z,13.12
2018-12-21T17:29:08.117Z,13.16
2018-12-21T17:30:08.133Z,13.09
2018-12-21T17:31:08.193Z,13.13
2018-12-21T17:32:08.257Z,13.18
2018-12-21T17:33:08.321Z,13.16
2018-12-21T17:34:08.392Z,13.19
2018-12-21T17:35:08.457Z,13.16
2018-12-21T17:36:08.509Z,13.12
2018-12-21T17:37:08.572Z,13.18
2018-12-21T17:38:08.633Z,13.16
2018-12-21T17:39:08.700Z,13.16
2018-12-21T17:40:08.765Z,13.15
2018-12-21T17:41:08.821Z,13.16
2018-12-21T17:42:08.881Z,13.15
2018-12-21T17:43:08.946Z,13.12
2018-12-21T17:44:09.025Z,13.09
2018-12-21T17:45:09.094Z,13.03
2018-12-21T17:46:09.134Z,13.11
2018-12-21T17:47:09.202Z,13.19
2018-12-21T17:48:09.261Z,13.13
2018-12-21T17:49:09.331Z,13.16
2018-12-21T17:50:09.387Z,13.15
2018-12-21T17:51:09.446Z,13.13
2018-12-21T17:52:09.510Z,13.11
2018-12-21T17:53:09.574Z,13.20
2018-12-21T17:54:09.646Z,13.09
2018-12-21T17:55:09.738Z,13.16
2018-12-21T17:56:09.766Z,13.16
2018-12-21T17:57:09.828Z,13.19
2018-12-21T17:58:09.886Z,13.16
2018-12-21T17:59:09.954Z,13.19
2018-12-21T18:00:10.018Z,13.18
2018-12-21T18:01:10.070Z,13.12
2018-12-21T18:02:10.135Z,13.16
2018-12-21T18:03:10.198Z,13.13
2018-12-21T18:04:10.293Z,13.09
2018-12-21T18:05:10.322Z,13.11
2018-12-21T18:06:10.382Z,13.08
2018-12-21T18:07:10.446Z,13.05
2018-12-21T18:08:10.511Z,13.09
2018-12-21T18:09:10.579Z,13.05
2018-12-21T18:10:10.658Z,12.94
2018-12-21T18:11:10.698Z,12.98
2018-12-21T18:12:10.761Z,12.87
2018-12-21T18:13:10.823Z,12.93
2018-12-21T18:14:10.894Z,12.98
2018-12-21T18:15:10.951Z,13.04
2018-12-21T18:16:11.011Z,13.04
2018-12-21T18:17:11.071Z,13.00
2018-12-21T18:18:11.136Z,13.03
2018-12-21T18:19:11.219Z,12.98
2018-12-21T18:20:11.259Z,12.97
2018-12-21T18:21:11.324Z,12.98
2018-12-21T18:22:11.383Z,12.79
2018-12-21T18:23:11.447Z,12.90
2018-12-21T18:24:11.523Z,12.85
2018-12-21T18:25:11.583Z,12.79
2018-12-21T18:26:11.639Z,12.82
2018-12-21T18:27:11.696Z,12.85
2018-12-21T18:28:11.759Z,12.83
2018-12-21T18:29:11.840Z,12.86
2018-12-21T18:30:11.892Z,12.90
2018-12-21T18:31:11.947Z,12.78
2018-12-21T18:32:12.008Z,12.80
2018-12-21T18:33:12.084Z,12.86
2018-12-21T18:34:12.380Z,12.85
2018-12-21T18:35:12.198Z,12.80
2018-12-21T18:36:12.268Z,12.85
2018-12-21T18:37:12.320Z,12.86
2018-12-21T18:38:12.384Z,12.87
2018-12-21T18:39:12.458Z,12.93
2018-12-21T18:40:12.516Z,12.93
2018-12-21T18:41:12.573Z,12.85
2018-12-21T18:42:12.636Z,12.87
2018-12-21T18:43:12.696Z,12.79
2018-12-21T18:44:12.769Z,12.90
2018-12-21T18:45:12.828Z,12.85
2018-12-21T18:46:12.885Z,12.86
2018-12-21T18:47:12.969Z,12.76
2018-12-21T18:48:13.017Z,12.73
2018-12-21T18:49:13.220Z,12.75
2018-12-21T18:50:13.132Z,12.85
2018-12-21T18:51:13.197Z,12.85
2018-12-21T18:52:13.263Z,12.79
2018-12-21T18:53:13.324Z,12.76
2018-12-21T18:54:13.417Z,12.76
2018-12-21T18:55:13.449Z,12.70
2018-12-21T18:56:13.693Z,12.73
2018-12-21T18:57:13.692Z,12.80
2018-12-21T18:58:13.637Z,12.78
2018-12-21T18:59:13.705Z,12.73
2018-12-21T19:00:13.774Z,12.76
2018-12-21T19:01:13.821Z,12.75
2018-12-21T19:02:14.041Z,12.70
2018-12-21T19:03:13.945Z,12.73
2018-12-21T19:04:14.023Z,12.73
2018-12-21T19:05:14.082Z,12.68
2018-12-21T19:06:14.138Z,12.64
2018-12-21T19:07:14.202Z,12.58
2018-12-21T19:08:14.258Z,12.57
2018-12-21T19:09:14.331Z,12.60
2018-12-21T19:10:14.390Z,12.60
2018-12-21T19:11:14.446Z,12.53
2018-12-21T19:12:14.510Z,12.55
2018-12-21T19:13:14.572Z,12.45
2018-12-21T19:14:14.642Z,12.39
2018-12-21T19:15:14.706Z,12.35
2018-12-21T19:16:14.760Z,12.45
2018-12-21T19:17:14.822Z,12.43
2018-12-21T19:18:14.882Z,12.36
2018-12-21T19:19:14.954Z,12.32
2018-12-21T19:20:15.017Z,12.36
2018-12-21T19:21:15.070Z,12.36
2018-12-21T19:22:15.135Z,12.35
2018-12-21T19:23:15.243Z,12.20
2018-12-21T19:24:15.590Z,12.32
2018-12-21T19:25:15.320Z,12.17
2018-12-21T19:26:15.383Z,12.36
2018-12-21T19:27:15.446Z,12.29
2018-12-21T19:28:15.507Z,12.40
2018-12-21T19:29:15.571Z,12.39
2018-12-21T19:30:15.659Z,12.32
2018-12-21T19:31:15.695Z,12.36
2018-12-21T19:32:15.759Z,12.35
2018-12-21T19:33:15.820Z,12.25
2018-12-21T19:34:15.917Z,12.29
2018-12-21T19:35:15.974Z,12.15
2018-12-21T19:36:16.021Z,12.21
2018-12-21T19:37:16.067Z,12.22
2018-12-21T19:38:16.132Z,12.24
2018-12-21T19:39:16.195Z,12.24
2018-12-21T19:40:16.255Z,12.24
2018-12-21T19:41:16.357Z,12.17
2018-12-21T19:42:16.379Z,12.07
2018-12-21T19:43:16.457Z,12.06
2018-12-21T19:44:16.507Z,12.06
2018-12-21T19:45:16.568Z,12.02
2018-12-21T19:46:16.640Z,12.17
2018-12-21T19:47:16.700Z,12.04
2018-12-21T19:48:16.756Z,12.10
2018-12-21T19:49:16.815Z,12.04
2018-12-21T19:50:16.879Z,12.03
2018-12-21T19:51:16.948Z,12.02
2018-12-21T19:52:17.012Z,12.00
2018-12-21T19:53:17.067Z,12.07
2018-12-21T19:54:17.128Z,12.02
2018-12-21T19:55:17.192Z,11.97
2018-12-21T19:56:17.357Z,12.03
2018-12-21T19:57:17.560Z,12.09
2018-12-21T19:58:17.380Z,12.04
2018-12-21T19:59:17.439Z,12.06
2018-12-21T20:00:17.508Z,12.04
2018-12-21T20:01:17.567Z,12.06
2018-12-21T20:02:17.636Z,12.06
2018-12-21T20:03:17.697Z,12.03
2018-12-21T20:04:17.752Z,12.07
2018-12-21T20:05:17.812Z,12.12
2018-12-21T20:06:17.876Z,12.03
2018-12-21T20:07:17.947Z,11.99
2018-12-21T20:08:18.008Z,12.02
2018-12-21T20:09:18.064Z,12.02
2018-12-21T20:10:18.125Z,12.12
2018-12-21T20:11:18.188Z,12.09
2018-12-21T20:12:18.248Z,12.02
2018-12-21T20:13:18.363Z,12.03
2018-12-21T20:14:18.372Z,12.07
2018-12-21T20:15:18.440Z,12.00
2018-12-21T20:16:18.500Z,12.04
2018-12-21T20:17:18.560Z,11.99
2018-12-21T20:18:18.629Z,12.02
2018-12-21T20:19:18.693Z,12.13
2018-12-21T20:20:18.748Z,12.04
2018-12-21T20:21:18.809Z,12.04
2018-12-21T20:22:18.875Z,12.00
2018-12-21T20:23:18.941Z,12.04
2018-12-21T20:24:19.004Z,12.09
2018-12-21T20:25:19.057Z,12.03
2018-12-21T20:26:19.120Z,12.02
2018-12-21T20:27:19.185Z,11.99
2018-12-21T20:28:19.249Z,12.07
2018-12-21T20:29:19.413Z,12.04
2018-12-21T20:30:19.369Z,12.06
2018-12-21T20:31:19.434Z,12.04
2018-12-21T20:32:19.497Z,12.09
2018-12-21T20:33:19.557Z,12.00
2018-12-21T20:34:19.630Z,12.07
2018-12-21T20:35:19.689Z,12.06
2018-12-21T20:36:19.745Z,12.00
2018-12-21T20:37:19.805Z,12.07
2018-12-21T20:38:21.481Z,12.13
2018-12-21T20:39:19.937Z,12.13
2018-12-21T20:40:20.002Z,12.09
2018-12-21T20:41:20.053Z,12.10
2018-12-21T20:42:20.121Z,12.18
2018-12-21T20:43:20.177Z,12.24
2018-12-21T20:44:20.257Z,12.17
2018-12-21T20:45:20.305Z,12.10
2018-12-21T20:46:20.366Z,12.17
2018-12-21T20:47:20.430Z,12.15
2018-12-21T20:48:20.490Z,12.12
2018-12-21T20:49:20.570Z,11.99
2018-12-21T20:50:20.622Z,12.03
2018-12-21T20:51:20.681Z,12.15
2018-12-21T20:52:20.738Z,12.06
2018-12-21T20:53:20.801Z,12.02
2018-12-21T20:54:20.873Z,11.99
2018-12-21T20:55:20.934Z,12.09
2018-12-21T20:56:20.989Z,12.09
2018-12-21T20:57:21.940Z,12.03
2018-12-21T20:58:21.113Z,12.09
2018-12-21T20:59:21.321Z,12.09
2018-12-21T21:00:21.237Z,12.04
2018-12-21T21:01:21.302Z,12.04
2018-12-21T21:02:21.366Z,12.03
2018-12-21T21:03:21.430Z,12.17
2018-12-21T21:04:21.633Z,12.15
2018-12-21T21:05:21.554Z,12.18
2018-12-21T21:06:21.610Z,12.18
2018-12-21T21:07:21.674Z,12.15
2018-12-21T21:08:21.735Z,12.17
2018-12-21T21:09:21.802Z,12.18
2018-12-21T21:10:21.978Z,12.17
2018-12-21T21:11:25.007Z,12.13
2018-12-21T21:12:21.985Z,12.22
2018-12-21T21:13:22.046Z,12.21
2018-12-21T21:14:22.110Z,12.13
2018-12-21T21:15:22.410Z,12.21
2018-12-21T21:16:22.235Z,12.18
2018-12-21T21:17:22.298Z,12.18
2018-12-21T21:18:22.358Z,12.22
2018-12-21T21:19:22.418Z,12.13
2018-12-21T21:20:22.491Z,12.17
2018-12-21T21:21:22.550Z,12.20
2018-12-21T21:22:22.607Z,12.15
2018-12-21T21:23:22.674Z,12.13
2018-12-21T21:24:22.730Z,12.15
2018-12-21T21:25:22.802Z,12.17
2018-12-21T21:26:22.863Z,12.17
2018-12-21T21:27:30.213Z,12.18
2018-12-21T21:28:22.981Z,12.21
2018-12-21T21:29:23.046Z,12.18
2018-12-21T21:30:23.230Z,12.27
2018-12-21T21:31:23.166Z,12.29
2018-12-21T21:32:23.234Z,12.27
2018-12-21T21:33:23.290Z,12.28
2018-12-21T21:34:23.354Z,12.25
2018-12-21T21:35:23.428Z,12.25
2018-12-21T21:36:23.486Z,12.13
2018-12-21T21:37:23.538Z,12.20
2018-12-21T21:38:23.602Z,12.13
2018-12-21T21:39:23.663Z,12.15
2018-12-21T21:40:23.735Z,12.17
2018-12-21T21:41:23.798Z,12.06
2018-12-21T21:42:23.854Z,12.09
2018-12-21T21:43:23.914Z,12.09
2018-12-21T21:44:23.980Z,11.95
2018-12-21T21:45:24.043Z,12.09
2018-12-21T21:46:24.111Z,11.97
2018-12-21T21:47:24.163Z,12.13
2018-12-21T21:48:24.223Z,12.00
2018-12-21T21:49:24.296Z,11.99
2018-12-21T21:50:24.355Z,12.02
2018-12-21T21:51:24.423Z,12.04
2018-12-21T21:52:24.475Z,11.97
2018-12-21T21:53:24.536Z,12.04
2018-12-21T21:54:24.601Z,12.06
2018-12-21T21:55:24.668Z,12.02
2018-12-21T21:56:24.732Z,12.03
2018-12-21T21:57:24.783Z,12.00
2018-12-21T21:58:24.847Z,12.02
2018-12-21T21:59:24.911Z,12.00
2018-12-21T22:00:24.995Z,12.07
2018-12-21T22:01:25.073Z,12.03
2018-12-21T22:02:25.096Z,12.00
2018-12-21T22:03:25.167Z,11.99
2018-12-21T22:04:25.226Z,12.00
2018-12-21T22:05:25.288Z,12.00
2018-12-21T22:06:25.592Z,11.97
2018-12-21T22:07:25.423Z,12.00
2018-12-21T22:08:25.507Z,11.97
2018-12-21T22:09:25.527Z,11.95
2018-12-21T22:10:25.592Z,11.99
2018-12-21T22:11:25.660Z,11.99
2018-12-21T22:12:25.753Z,11.90
2018-12-21T22:13:25.776Z,12.00
2018-12-21T22:14:25.842Z,11.84
2018-12-21T22:15:25.903Z,11.87
2018-12-21T22:16:25.974Z,11.86
2018-12-21T22:17:26.036Z,11.94
2018-12-21T22:18:26.087Z,11.84
2018-12-21T22:19:26.152Z,11.91
2018-12-21T22:20:26.216Z,11.90
2018-12-21T22:21:26.372Z,11.87
2018-12-21T22:22:26.340Z,11.77
2018-12-21T22:23:26.403Z,11.87
2018-12-21T22:24:26.464Z,11.83
2018-12-21T22:25:26.524Z,11.90
2018-12-21T22:26:26.592Z,11.83
2018-12-21T22:27:26.658Z,11.80
2018-12-21T22:28:26.712Z,11.78
2018-12-21T22:29:26.771Z,11.77
2018-12-21T22:30:26.836Z,11.77
2018-12-21T22:31:26.904Z,11.75
2018-12-21T22:32:26.971Z,11.73
2018-12-21T22:33:27.024Z,11.78
2018-12-21T22:34:27.084Z,11.72
2018-12-21T22:35:27.146Z,11.84
2018-12-21T22:36:27.441Z,11.72
2018-12-21T22:37:27.268Z,11.84
2018-12-21T22:38:27.332Z,11.84
2018-12-21T22:39:27.400Z,11.87
2018-12-21T22:40:27.460Z,11.86
2018-12-21T22:41:27.524Z,11.81
2018-12-21T22:42:27.588Z,11.87
2018-12-21T22:43:27.644Z,11.84